Main page
METAR-TAF:

Airports :

Christchurch, New Zealand

Christchurch International Airport

latitude: 43-29S, longitude: 172-33E, elevation: 38 m

Current weather observation

The report was made 34 minutes ago, at 08:00 UTC
Wind 3 kt from the East
Temperature 9°C
Humidity 81%
Pressure 1010 hPa
Visibility 10 km or more

METAR: NZCH 280800Z AUTO 08003KT 9999 NCD 09/06 Q1010 NOSIG

Time: 20:34 (08:34 UTC)

Forecast

The report was made 3 hours and 31 minutes ago, at 05:03 UTC
Forecast valid from 28 at 06 UTC to 29 at 06 UTC
Wind 5 kt from the East/Northeast
Visibility 10 km or more
no clouds below 1500 m and no cumulonimbus
Probability 30%
from 28 at 12 UTC to 28 at 19 UTC
Visibility: 0500 m
fog
Becoming
from 28 at 21 UTC to 28 at 23 UTC
Wind 12 kt from the Northwest

TAF: NZCH 280503Z 2806/2906 07005KT CAVOK PROB30 2812/2819 0500 FG BECMG 2821/2823 32012KT

METAR-TAF

Weather observations and forecasts of more than 4000 airports (METAR and TAF reports).

The available stations are represented by yellow and red dots on the map.

Hover mouse over dot to see the name of the station.

Then click to see weather observations and forecasts.

To change the map : click on the green buttons with a black cross to zoom in, on the green button with a dash to zoom out, or on the green arrows for adjacent maps.


METAR-TAF: